Time;durP1;ratioP1;P1;durP2;ratioP2;P2;SDS_P1;SDS_P2;PMS_P1;PMS_P2;Temp;Humidity;BMP_temperature;BMP_pressure;BME280_temperature;BME280_humidity;BME280_pressure;Samples;Min_cycle;Max_cycle;Signal;HPM_P1;HPM_P2
2022/01/31 00:01:48;;;;;;;5.30;3.63;;;;;;;-143.84;76.67;45134.75;5093421;28;20526;-74
2022/01/31 00:04:15;;;;;;;13.67;3.17;;;;;;;-143.84;76.57;45148.09;5092837;28;20501;-73
2022/01/31 00:06:47;;;;;;;6.20;3.03;;;;;;;-143.84;75.62;45146.19;5093026;28;20435;-73
2022/01/31 00:09:16;;;;;;;6.57;2.63;;;;;;;-143.84;75.86;45136.66;5090925;28;20826;-74
2022/01/31 00:11:54;;;;;;;4.30;3.17;;;;;;;-143.84;75.50;45142.38;5092832;28;20455;-74
2022/01/31 00:14:32;;;;;;;12.40;3.10;;;;;;;-143.84;75.08;45153.81;5092771;28;20491;-73
2022/01/31 00:17:00;;;;;;;9.63;6.17;;;;;;;-143.84;74.53;45176.66;5093135;28;20443;-74
2022/01/31 00:19:28;;;;;;;7.13;3.73;;;;;;;-143.84;73.91;45132.84;5092909;28;20804;-74
2022/01/31 00:21:56;;;;;;;5.03;3.10;;;;;;;-143.84;73.88;45140.47;5092300;28;20973;-74
2022/01/31 00:24:23;;;;;;;5.63;3.13;;;;;;;-143.84;73.33;45161.41;5092856;28;20449;-73
2022/01/31 00:26:52;;;;;;;7.80;2.30;;;;;;;-143.84;73.22;45170.94;5092958;28;20785;-73
2022/01/31 00:29:19;;;;;;;12.57;2.77;;;;;;;-143.84;72.74;45163.31;5092680;28;20957;-73
2022/01/31 00:31:46;;;;;;;6.17;3.13;;;;;;;-143.84;72.86;45151.91;5092726;28;20436;-73
2022/01/31 00:34:14;;;;;;;9.90;3.83;;;;;;;-143.84;73.52;45151.91;5092971;28;20762;-73
2022/01/31 00:36:41;;;;;;;8.77;3.90;;;;;;;-143.84;74.28;45146.19;5092093;28;20435;-74
2022/01/31 00:39:08;;;;;;;44.23;5.10;;;;;;;-143.84;74.50;45144.28;5092346;28;20428;-74
2022/01/31 00:41:36;;;;;;;11.90;4.17;;;;;;;-143.84;74.72;45169.03;5092305;28;20505;-73
2022/01/31 00:44:17;;;;;;;9.77;3.47;;;;;;;-143.84;75.05;45155.69;5092468;28;20568;-72
2022/01/31 00:46:50;;;;;;;18.57;3.33;;;;;;;-143.84;75.60;45115.72;5089417;28;20559;-73
2022/01/31 00:49:27;;;;;;;16.97;4.17;;;;;;;-143.84;75.18;45150.00;5089750;28;20506;-73
2022/01/31 00:51:54;;;;;;;6.20;3.30;;;;;;;-143.84;75.98;45148.09;5091848;28;20438;-74
2022/01/31 00:54:22;;;;;;;8.60;3.70;;;;;;;-143.84;75.72;45151.91;5091422;28;20803;-73
2022/01/31 00:56:50;;;;;;;6.37;4.10;;;;;;;-143.84;76.25;45138.56;5090981;28;20448;-73
2022/01/31 00:59:19;;;;;;;12.60;6.70;;;;;;;-143.84;76.46;45146.19;5091264;28;20947;-73
2022/01/31 01:01:49;;;;;;;12.77;5.03;;;;;;;-143.84;76.46;45151.91;5089365;28;20480;-73
2022/01/31 01:04:16;;;;;;;7.70;4.90;;;;;;;-143.84;76.23;45148.09;5090069;28;20959;-73
2022/01/31 01:06:44;;;;;;;10.50;4.30;;;;;;;-143.84;76.69;45161.41;5089921;28;20430;-74
2022/01/31 01:09:11;;;;;;;13.83;5.37;;;;;;;-143.84;77.04;45151.91;5090653;28;20438;-73
2022/01/31 01:11:38;;;;;;;26.20;4.43;;;;;;;-143.84;77.11;45121.44;5089826;28;20438;-73
2022/01/31 01:14:05;;;;;;;12.37;5.23;;;;;;;-143.84;77.12;45144.28;5091454;28;20539;-73
2022/01/31 01:16:36;;;;;;;25.67;4.13;;;;;;;-143.84;77.12;45140.47;5091971;28;20449;-74
2022/01/31 01:19:04;;;;;;;8.20;4.20;;;;;;;-143.84;77.03;45150.00;5091900;28;20535;-74
2022/01/31 01:21:32;;;;;;;5.40;3.77;;;;;;;-143.84;76.58;45159.50;5092183;28;20479;-73
2022/01/31 01:23:59;;;;;;;25.27;3.87;;;;;;;-143.84;77.27;45155.69;5091289;28;20800;-73
2022/01/31 01:26:26;;;;;;;9.80;3.70;;;;;;;-143.84;77.29;45127.13;5090434;28;20505;-73
2022/01/31 01:28:53;;;;;;;18.67;4.33;;;;;;;-143.84;77.27;45146.19;5091588;28;20432;-74
2022/01/31 01:31:20;;;;;;;14.90;3.30;;;;;;;-143.84;76.54;45155.69;5091778;28;20774;-73
2022/01/31 01:33:49;;;;;;;11.53;3.60;;;;;;;-143.84;77.03;45167.13;5091853;28;20539;-73
2022/01/31 01:36:19;;;;;;;10.63;4.00;;;;;;;-143.84;76.71;45148.09;5091789;28;20534;-74
2022/01/31 01:38:46;;;;;;;13.20;4.17;;;;;;;-143.84;77.06;45161.41;5091772;28;20444;-73
2022/01/31 01:41:13;;;;;;;6.70;3.60;;;;;;;-143.84;77.00;45151.91;5092166;28;20492;-73
2022/01/31 01:43:40;;;;;;;13.17;3.43;;;;;;;-143.84;76.62;45140.47;5091526;28;20795;-73
2022/01/31 01:46:08;;;;;;;8.83;3.53;;;;;;;-143.84;77.01;45180.47;5091600;28;20429;-73
2022/01/31 01:48:35;;;;;;;9.73;3.37;;;;;;;-143.84;76.63;45161.41;5091664;28;20434;-73
2022/01/31 01:51:04;;;;;;;14.67;3.50;;;;;;;-143.84;75.86;45115.72;5091777;28;20437;-73
2022/01/31 01:53:32;;;;;;;12.90;3.00;;;;;;;-143.84;76.17;45155.69;5091831;28;20456;-73
2022/01/31 01:55:59;;;;;;;30.80;4.60;;;;;;;-143.84;76.19;45163.31;5091562;28;20443;-73
2022/01/31 01:58:36;;;;;;;8.90;4.00;;;;;;;-143.84;75.66;45150.00;5091622;28;20432;-73
2022/01/31 02:01:04;;;;;;;27.23;4.50;;;;;;;-143.84;75.80;45159.50;5091578;28;20514;-73
2022/01/31 02:03:33;;;;;;;11.53;4.30;;;;;;;-143.84;75.46;45142.38;5092102;28;20423;-73
2022/01/31 02:06:01;;;;;;;12.83;4.90;;;;;;;-143.84;74.74;45129.03;5092034;28;20946;-74
2022/01/31 02:08:38;;;;;;;9.40;4.27;;;;;;;-143.84;74.60;45163.31;5092138;28;20432;-73
2022/01/31 02:11:06;;;;;;;20.70;4.80;;;;;;;-143.84;74.38;45148.09;5091589;28;20930;-74
2022/01/31 02:13:36;;;;;;;7.90;4.50;;;;;;;-143.84;74.02;45136.66;5091598;28;20478;-73
2022/01/31 02:16:05;;;;;;;14.13;3.60;;;;;;;-143.84;74.07;45150.00;5091436;28;21038;-73
2022/01/31 02:18:32;;;;;;;6.20;3.20;;;;;;;-143.84;73.55;45142.38;5094648;28;20424;-73
2022/01/31 02:21:02;;;;;;;17.33;3.10;;;;;;;-143.84;73.63;45142.38;5095323;28;21065;-73
2022/01/31 02:23:29;;;;;;;15.47;3.37;;;;;;;-143.84;73.16;45142.38;5095400;28;20433;-74
2022/01/31 02:26:01;;;;;;;6.57;2.83;;;;;;;-143.84;72.59;45159.50;5095200;28;20443;-74
2022/01/31 02:28:30;;;;;;;25.90;3.67;;;;;;;-143.84;72.76;45121.44;5095275;28;20432;-73
2022/01/31 02:30:58;;;;;;;15.70;3.63;;;;;;;-143.84;72.10;45151.91;5095082;28;21067;-74
2022/01/31 02:33:26;;;;;;;35.53;4.40;;;;;;;-143.84;72.11;45150.00;5095269;28;20428;-73
2022/01/31 02:35:55;;;;;;;24.40;4.07;;;;;;;-143.84;71.74;45140.47;5094748;28;20470;-73
2022/01/31 02:38:25;;;;;;;7.47;3.10;;;;;;;-143.84;71.03;45167.13;5095244;28;20458;-73
2022/01/31 02:40:53;;;;;;;10.07;3.20;;;;;;;-143.84;71.14;45161.41;5092994;28;20471;-74
2022/01/31 02:43:20;;;;;;;24.50;3.13;;;;;;;-143.84;71.33;45153.81;5094657;28;20448;-74
2022/01/31 02:45:48;;;;;;;23.90;3.23;;;;;;;-143.84;70.84;45169.03;5095204;28;20492;-73
2022/01/31 02:48:17;;;;;;;34.33;3.43;;;;;;;-143.84;70.83;45134.75;5095068;28;20445;-74
2022/01/31 02:50:45;;;;;;;12.50;3.43;;;;;;;-143.84;70.44;45159.50;5093675;28;20485;-74
2022/01/31 02:53:13;;;;;;;21.33;4.33;;;;;;;-143.84;70.38;45136.66;5094307;28;20787;-74
2022/01/31 02:55:43;;;;;;;32.37;4.10;;;;;;;-143.84;70.31;45150.00;5093359;28;20444;-73
2022/01/31 02:58:11;;;;;;;14.80;3.63;;;;;;;-143.84;70.09;45159.50;5094888;28;20910;-73
2022/01/31 03:00:40;;;;;;;12.33;3.27;;;;;;;-143.84;70.66;45146.19;5094644;28;20468;-74
2022/01/31 03:03:07;;;;;;;19.03;3.47;;;;;;;-143.84;70.41;45153.81;5094935;28;21136;-73
2022/01/31 03:05:35;;;;;;;13.70;3.30;;;;;;;-143.84;70.04;45148.09;5094733;28;20476;-73
2022/01/31 03:08:03;;;;;;;22.23;3.00;;;;;;;-143.84;69.74;45169.03;5094087;28;20436;-74
2022/01/31 03:10:30;;;;;;;26.60;3.23;;;;;;;-143.84;69.09;45148.09;5094826;28;20421;-74
2022/01/31 03:13:00;;;;;;;29.90;3.23;;;;;;;-143.84;69.69;45167.13;5094292;28;20948;-74
2022/01/31 03:15:28;;;;;;;22.83;4.27;;;;;;;-143.84;69.29;45176.66;5094257;28;20505;-74
2022/01/31 03:17:55;;;;;;;14.83;3.80;;;;;;;-143.84;68.77;45144.28;5094512;28;20446;-74
2022/01/31 03:20:24;;;;;;;17.73;3.17;;;;;;;-143.84;69.43;45151.91;5094145;28;20958;-74
2022/01/31 03:22:51;;;;;;;10.00;3.20;;;;;;;-143.84;69.22;45151.91;5094322;28;20435;-74
2022/01/31 03:25:19;;;;;;;9.70;4.20;;;;;;;-143.84;69.27;45153.81;5093684;28;20441;-73
2022/01/31 03:27:48;;;;;;;25.87;5.37;;;;;;;-143.84;68.80;45163.31;5093830;28;20444;-74
2022/01/31 03:30:19;;;;;;;14.37;3.87;;;;;;;-143.84;68.81;45169.03;5094448;28;20421;-73
2022/01/31 03:32:47;;;;;;;25.57;3.50;;;;;;;-143.84;68.39;45155.69;5094148;28;20510;-73
2022/01/31 03:35:15;;;;;;;11.90;2.70;;;;;;;-143.84;68.26;45163.31;5094120;28;20922;-74
2022/01/31 03:37:42;;;;;;;16.27;2.87;;;;;;;-143.84;68.26;45148.09;5093965;28;20428;-73
2022/01/31 03:40:11;;;;;;;13.40;3.50;;;;;;;-143.84;68.64;45189.97;5093734;28;20432;-74
2022/01/31 03:42:39;;;;;;;17.53;3.70;;;;;;;-143.84;68.35;45159.50;5093570;28;20485;-73
2022/01/31 03:45:08;;;;;;;9.60;2.90;;;;;;;-143.84;68.64;45155.69;5093654;28;20486;-73
2022/01/31 03:47:44;;;;;;;14.73;3.77;;;;;;;-143.84;68.92;45138.56;5093929;28;20447;-73
2022/01/31 03:50:11;;;;;;;7.97;2.67;;;;;;;-143.84;68.61;45146.19;5093619;28;21163;-74
2022/01/31 03:52:39;;;;;;;10.80;2.47;;;;;;;-143.84;68.42;45174.75;5093797;28;20432;-74
2022/01/31 03:55:07;;;;;;;10.17;3.33;;;;;;;-143.84;68.52;45169.03;5092962;28;20875;-74
2022/01/31 03:57:35;;;;;;;20.23;2.77;;;;;;;-143.84;68.95;45163.31;5091869;28;20433;-73
2022/01/31 04:00:04;;;;;;;11.50;3.30;;;;;;;-143.84;68.78;45121.44;5093643;28;20773;-73
2022/01/31 04:02:32;;;;;;;34.80;3.33;;;;;;;-143.84;68.49;45174.75;5093129;28;20564;-74
2022/01/31 04:05:00;;;;;;;12.60;2.63;;;;;;;-143.84;68.61;45155.69;5093405;28;20437;-73
2022/01/31 04:07:27;;;;;;;14.03;2.63;;;;;;;-143.84;68.61;45148.09;5093530;28;20436;-73
2022/01/31 04:09:54;;;;;;;35.70;3.00;;;;;;;-143.84;68.65;45148.09;5093226;28;20478;-73
2022/01/31 04:12:22;;;;;;;15.57;3.53;;;;;;;-143.84;68.83;45165.22;5093343;28;20797;-73
2022/01/31 04:14:49;;;;;;;11.83;3.37;;;;;;;-143.84;68.21;45150.00;5092590;28;20475;-73
2022/01/31 04:17:19;;;;;;;17.10;3.30;;;;;;;-143.84;68.19;45151.91;5093043;28;20930;-73
2022/01/31 04:19:46;;;;;;;15.40;2.57;;;;;;;-143.84;68.44;45161.41;5093366;28;20516;-73
2022/01/31 04:22:18;;;;;;;20.23;3.00;;;;;;;-143.84;68.18;45132.84;5093360;28;20471;-74
2022/01/31 04:24:47;;;;;;;16.70;3.87;;;;;;;-143.84;67.61;45140.47;5073601;28;20461;-73
2022/01/31 04:27:18;;;;;;;32.13;3.10;;;;;;;-143.84;68.43;45142.38;5072448;28;20495;-73
2022/01/31 04:29:48;;;;;;;14.33;2.40;;;;;;;-143.84;67.98;45140.47;5072445;28;20799;-73
2022/01/31 04:32:15;;;;;;;25.43;3.80;;;;;;;-143.84;68.11;45144.28;5071892;28;20429;-73
2022/01/31 04:34:42;;;;;;;24.20;4.50;;;;;;;-143.84;68.01;45161.41;5072208;28;20510;-74
2022/01/31 04:37:10;;;;;;;11.80;2.90;;;;;;;-143.84;67.98;45155.69;5084936;28;20526;-74
2022/01/31 04:39:39;;;;;;;19.20;3.53;;;;;;;-143.84;67.81;45144.28;5091131;28;20446;-74
2022/01/31 04:42:08;;;;;;;13.97;2.83;;;;;;;-143.84;67.35;45129.03;5090021;28;20506;-73
2022/01/31 04:44:36;;;;;;;10.47;2.93;;;;;;;-143.84;67.50;45165.22;5091443;28;20429;-74
2022/01/31 04:47:04;;;;;;;12.50;3.20;;;;;;;-143.84;67.87;45174.75;5092129;28;20517;-74
2022/01/31 04:49:33;;;;;;;7.83;2.80;;;;;;;-143.84;68.03;45155.69;5090794;28;20452;-73
2022/01/31 04:52:01;;;;;;;44.63;3.40;;;;;;;-143.84;68.09;45151.91;5088500;28;20548;-73
2022/01/31 04:54:28;;;;;;;12.53;2.50;;;;;;;-143.84;68.26;45151.91;5089236;28;20489;-73
2022/01/31 04:56:57;;;;;;;11.90;2.60;;;;;;;-143.84;68.57;45161.41;5091849;28;20819;-73
2022/01/31 04:59:24;;;;;;;11.20;2.40;;;;;;;-143.84;68.34;45146.19;5091635;28;20448;-74
2022/01/31 05:01:52;;;;;;;29.17;3.57;;;;;;;-143.84;68.63;45148.09;5091736;28;21066;-72
2022/01/31 05:04:19;;;;;;;8.20;2.60;;;;;;;-143.84;68.61;45134.75;5091578;28;20448;-73
2022/01/31 05:06:47;;;;;;;12.60;4.20;;;;;;;-143.84;68.77;45184.25;5091910;28;20466;-73
2022/01/31 05:09:14;;;;;;;10.10;2.20;;;;;;;-143.84;68.91;45170.94;5091828;28;20440;-74
2022/01/31 05:11:42;;;;;;;16.13;3.30;;;;;;;-143.84;69.60;45140.47;5089941;28;20429;-73
2022/01/31 05:14:11;;;;;;;22.27;3.77;;;;;;;-143.84;68.94;45142.38;5091572;28;20568;-74
2022/01/31 05:16:38;;;;;;;14.83;2.10;;;;;;;-143.84;68.98;45178.56;5091952;28;20962;-74
2022/01/31 05:19:05;;;;;;;9.30;3.17;;;;;;;-143.84;68.80;45144.28;5092201;28;20447;-73
2022/01/31 05:21:32;;;;;;;10.10;2.33;;;;;;;-143.84;69.00;45167.13;5091355;28;20549;-73
2022/01/31 05:24:00;;;;;;;10.30;2.50;;;;;;;-143.84;69.35;45159.50;5091774;28;20432;-74
2022/01/31 05:26:27;;;;;;;20.23;2.20;;;;;;;-143.84;69.80;45142.38;5091821;28;20417;-73
2022/01/31 05:28:55;;;;;;;12.67;3.33;;;;;;;-143.84;69.79;45167.13;5091844;28;20542;-74
2022/01/31 05:31:23;;;;;;;15.97;2.57;;;;;;;-143.84;69.05;45165.22;5091725;28;20433;-73
2022/01/31 05:33:50;;;;;;;12.53;4.10;;;;;;;-143.84;69.72;45142.38;5092008;28;20432;-74
2022/01/31 05:36:20;;;;;;;33.73;4.53;;;;;;;-143.84;69.94;45155.69;5091101;28;20428;-69
2022/01/31 05:38:47;;;;;;;13.67;3.10;;;;;;;-143.84;70.17;45151.91;5090951;28;20436;-77
2022/01/31 05:41:18;;;;;;;10.13;2.30;;;;;;;-143.84;69.97;45184.25;5090915;28;20440;-73
2022/01/31 05:43:46;;;;;;;13.63;3.70;;;;;;;-143.84;69.30;45170.94;5091298;28;20434;-72
2022/01/31 05:46:13;;;;;;;21.43;4.43;;;;;;;-143.84;69.65;45165.22;5091258;28;20434;-73
2022/01/31 05:48:42;;;;;;;20.77;4.23;;;;;;;-143.84;70.06;45151.91;5091020;28;20436;-73
2022/01/31 05:51:15;;;;;;;25.93;6.73;;;;;;;-143.84;69.92;45125.22;5092792;28;20490;-73
2022/01/31 05:53:45;;;;;;;18.60;3.27;;;;;;;-143.84;70.61;45172.84;5094623;28;20955;-73
2022/01/31 05:56:12;;;;;;;19.60;3.30;;;;;;;-143.84;70.28;45167.13;5094766;28;20436;-74
2022/01/31 05:58:40;;;;;;;5.67;1.90;;;;;;;-143.84;70.29;45170.94;5093747;28;20429;-73
2022/01/31 06:01:07;;;;;;;27.97;3.13;;;;;;;-143.84;70.23;45174.75;5095053;28;20431;-73
2022/01/31 06:03:34;;;;;;;18.47;3.30;;;;;;;-143.84;70.79;45151.91;5092617;28;21097;-69
2022/01/31 06:06:03;;;;;;;7.23;2.80;;;;;;;-143.84;70.85;45167.13;5092156;28;20497;-69
2022/01/31 06:08:31;;;;;;;19.63;3.70;;;;;;;-143.84;70.91;45146.19;5092844;28;20505;-70
2022/01/31 06:10:58;;;;;;;8.97;2.63;;;;;;;-143.84;71.11;45148.09;5092917;28;20485;-69
2022/01/31 06:13:28;;;;;;;5.20;3.00;;;;;;;-143.84;70.93;45176.66;5092739;28;20489;-69
2022/01/31 06:15:56;;;;;;;18.63;2.90;;;;;;;-143.84;71.10;45148.09;5092849;28;20991;-69
2022/01/31 06:18:23;;;;;;;10.67;3.73;;;;;;;-143.84;71.65;45157.59;5092375;28;20943;-69
2022/01/31 06:20:50;;;;;;;25.30;4.17;;;;;;;-143.84;71.33;45140.47;5091661;28;21022;-69
2022/01/31 06:23:19;;;;;;;15.13;3.10;;;;;;;-143.84;71.25;45134.75;5092319;28;20542;-69
2022/01/31 06:25:47;;;;;;;7.60;2.70;;;;;;;-143.84;71.05;45159.50;5092369;28;20433;-70
2022/01/31 06:28:14;;;;;;;11.63;3.40;;;;;;;-143.84;71.17;45113.81;5091491;28;20964;-70
2022/01/31 06:30:41;;;;;;;10.40;3.63;;;;;;;-143.84;70.54;45155.69;5091072;28;20491;-70
2022/01/31 06:33:08;;;;;;;16.50;3.47;;;;;;;-143.84;69.96;45174.75;5091541;28;20918;-69
2022/01/31 06:35:36;;;;;;;10.43;3.10;;;;;;;-143.84;69.95;45136.66;5091580;28;20440;-69
2022/01/31 06:38:03;;;;;;;15.00;3.43;;;;;;;-143.84;68.64;45146.19;5091669;28;20428;-69
2022/01/31 06:40:32;;;;;;;14.97;3.60;;;;;;;-143.84;68.48;45163.31;5091818;28;20447;-69
2022/01/31 06:42:59;;;;;;;15.20;5.60;;;;;;;-143.84;68.33;45157.59;5091559;28;20471;-69
2022/01/31 06:45:26;;;;;;;13.83;3.43;;;;;;;-143.84;67.83;45144.28;5091873;28;20473;-69
2022/01/31 06:47:53;;;;;;;22.80;5.70;;;;;;;-143.84;67.39;45138.56;5091498;28;20442;-69
2022/01/31 06:50:20;;;;;;;11.13;4.00;;;;;;;-143.84;67.07;45138.56;5091812;28;20452;-69
2022/01/31 06:52:51;;;;;;;20.70;5.63;;;;;;;-143.84;66.38;45151.91;5091320;28;20440;-69
2022/01/31 06:55:21;;;;;;;21.03;4.97;;;;;;;-143.84;65.81;45150.00;5091771;28;20534;-69
2022/01/31 06:57:51;;;;;;;31.77;4.80;;;;;;;-143.84;65.57;45127.13;5091557;28;20464;-70
2022/01/31 07:00:20;;;;;;;23.03;3.87;;;;;;;-143.84;64.42;45134.75;5091751;28;21365;-70
2022/01/31 07:02:48;;;;;;;16.70;7.70;;;;;;;-143.84;64.21;45111.91;5090723;28;20468;-69
2022/01/31 07:05:16;;;;;;;21.77;4.40;;;;;;;-143.84;63.94;45132.84;5091140;28;20436;-69
2022/01/31 07:07:44;;;;;;;27.17;5.27;;;;;;;-143.84;63.60;45134.75;5090929;28;20424;-69
2022/01/31 07:10:13;;;;;;;12.80;3.93;;;;;;;-143.84;63.51;45155.69;5091349;28;20456;-70
2022/01/31 07:12:47;;;;;;;22.07;4.50;;;;;;;-143.84;62.77;45129.03;5091026;28;20443;-70
2022/01/31 07:15:16;;;;;;;23.53;3.50;;;;;;;-143.84;61.95;45130.94;5091069;28;20439;-69
2022/01/31 07:17:44;;;;;;;34.20;4.37;;;;;;;-143.84;61.29;45142.38;5091498;28;20436;-69
2022/01/31 07:20:21;;;;;;;16.10;3.40;;;;;;;-143.84;61.40;45104.28;5090448;28;20485;-70
2022/01/31 07:22:54;;;;;;;9.70;3.57;;;;;;;-143.84;60.67;45142.38;5090730;28;20479;-69
2022/01/31 07:25:34;;;;;;;20.60;3.97;;;;;;;-143.84;60.30;45150.00;5091425;28;20774;-70
2022/01/31 07:28:02;;;;;;;105.03;49.33;;;;;;;-143.84;59.55;45151.91;5091307;28;20435;-70
2022/01/31 07:30:31;;;;;;;32.73;8.07;;;;;;;-143.84;58.49;45129.03;5091048;28;20479;-70
2022/01/31 07:32:58;;;;;;;27.77;3.87;;;;;;;-143.84;59.34;45129.03;5091133;28;20447;-70
2022/01/31 07:35:25;;;;;;;13.53;4.77;;;;;;;-143.84;57.95;45138.56;5090575;28;20888;-70
2022/01/31 07:37:53;;;;;;;19.73;3.63;;;;;;;-143.84;57.31;45127.13;5090723;28;20925;-70
2022/01/31 07:40:20;;;;;;;39.57;4.30;;;;;;;-143.84;57.07;45129.03;5090657;28;20437;-71
2022/01/31 07:42:47;;;;;;;29.43;6.90;;;;;;;-143.84;56.53;45138.56;5090264;28;20476;-70
2022/01/31 07:45:15;;;;;;;14.43;3.23;;;;;;;-143.84;56.17;45113.81;5090333;28;20818;-70
2022/01/31 07:47:44;;;;;;;16.37;4.43;;;;;;;-143.84;56.05;45144.28;5090077;28;20944;-71
2022/01/31 07:50:13;;;;;;;22.40;4.00;;;;;;;-143.84;55.07;45100.47;5090124;28;20462;-69
2022/01/31 07:52:40;;;;;;;19.23;3.80;;;;;;;-143.84;54.03;45108.09;5090638;28;20504;-69
2022/01/31 07:55:08;;;;;;;28.07;4.03;;;;;;;-143.84;54.00;45111.91;5090270;28;20434;-71
2022/01/31 07:57:35;;;;;;;26.13;4.90;;;;;;;-143.84;53.63;45117.63;5090413;28;20432;-70
2022/01/31 08:00:09;;;;;;;14.57;3.43;;;;;;;-143.84;53.49;45110.00;5090093;28;20447;-71
2022/01/31 08:02:36;;;;;;;26.30;7.00;;;;;;;-143.84;53.29;45123.34;5090469;28;20483;-70
2022/01/31 08:05:07;;;;;;;20.27;2.77;;;;;;;-143.84;52.24;45090.97;5089713;28;21020;-71
2022/01/31 08:07:34;;;;;;;20.00;3.97;;;;;;;-143.84;52.46;45111.91;5090087;28;20452;-70
2022/01/31 08:10:07;;;;;;;11.70;3.23;;;;;;;-143.84;51.14;45104.28;5089994;28;20431;-71
2022/01/31 08:12:36;;;;;;;29.10;4.33;;;;;;;-143.84;51.44;45110.00;5089869;28;20527;-76
2022/01/31 08:15:07;;;;;;;35.73;4.00;;;;;;;-143.84;51.05;45108.09;5089354;28;20476;-75
2022/01/31 08:17:34;;;;;;;10.60;3.23;;;;;;;-143.84;50.38;45108.09;5089829;28;20436;-76
2022/01/31 08:20:02;;;;;;;17.73;4.23;;;;;;;-143.84;49.62;45110.00;5089030;28;20878;-75
2022/01/31 08:22:31;;;;;;;14.73;3.33;;;;;;;-143.84;48.47;45106.19;5090037;28;20476;-76
2022/01/31 08:24:58;;;;;;;6.80;2.23;;;;;;;-143.84;47.85;45134.75;5090021;28;20446;-75
2022/01/31 08:27:25;;;;;;;29.53;3.73;;;;;;;-143.84;47.37;45106.19;5090001;28;21011;-76
2022/01/31 08:29:59;;;;;;;29.57;4.17;;;;;;;-143.84;47.43;45115.72;5089604;28;20432;-75
2022/01/31 08:32:34;;;;;;;12.67;4.40;;;;;;;-143.84;47.03;45102.38;5089799;28;20454;-76
2022/01/31 08:37:49;;;;;;;38.77;3.40;;;;;;;-143.84;46.00;45090.97;5089826;28;20424;-75
2022/01/31 08:40:17;;;;;;;11.40;4.10;;;;;;;-143.84;45.53;45070.00;5089198;28;20436;-76
2022/01/31 08:42:45;;;;;;;17.93;4.17;;;;;;;-143.84;45.86;45117.63;5088844;28;20465;-76
2022/01/31 08:45:12;;;;;;;12.00;3.67;;;;;;;-143.84;45.42;45098.56;5089164;28;20466;-75
2022/01/31 08:47:41;;;;;;;24.63;4.23;;;;;;;-143.84;44.61;45081.44;5096106;28;20451;-76
2022/01/31 08:50:09;;;;;;;21.27;3.00;;;;;;;-143.84;44.53;45098.56;5110054;28;20451;-76
2022/01/31 08:52:37;;;;;;;17.50;3.90;;;;;;;-143.84;43.96;45083.34;5109948;28;20464;-76
2022/01/31 08:55:07;;;;;;;12.73;3.40;;;;;;;-143.84;44.19;45108.09;5110002;28;20960;-76
2022/01/31 08:57:34;;;;;;;14.97;3.20;;;;;;;-143.84;44.47;45098.56;5109603;28;21329;-76
2022/01/31 09:00:01;;;;;;;31.83;3.87;;;;;;;-143.84;43.51;45106.19;5109125;28;20949;-76
2022/01/31 09:02:38;;;;;;;18.83;3.90;;;;;;;-143.84;43.69;45083.34;5108778;28;20525;-76
2022/01/31 09:05:06;;;;;;;12.37;4.00;;;;;;;-143.84;42.84;45075.72;5109026;28;20933;-76
2022/01/31 09:07:33;;;;;;;30.23;3.23;;;;;;;-143.84;42.50;45121.44;5107745;28;20436;-76
2022/01/31 09:10:01;;;;;;;10.10;3.33;;;;;;;-143.84;42.89;45111.91;5110226;28;20841;-76
2022/01/31 09:12:32;;;;;;;42.83;9.40;;;;;;;-143.84;42.57;45077.63;5110360;28;20446;-73
2022/01/31 09:15:00;;;;;;;18.70;5.13;;;;;;;-143.84;42.38;45092.88;5109695;28;20986;-73
2022/01/31 09:17:27;;;;;;;16.20;4.83;;;;;;;-143.84;43.28;45081.44;5109502;28;20472;-76
2022/01/31 09:19:55;;;;;;;38.03;4.03;;;;;;;-143.84;42.55;45106.19;5109743;28;20446;-76
2022/01/31 09:22:22;;;;;;;11.93;3.13;;;;;;;-143.84;42.80;45077.63;5109323;28;20444;-76
2022/01/31 09:24:50;;;;;;;23.77;3.30;;;;;;;-143.84;42.51;45102.38;5109580;28;20444;-76
2022/01/31 09:27:18;;;;;;;14.97;3.73;;;;;;;-143.84;42.42;45083.34;5109482;28;20442;-76
2022/01/31 09:29:46;;;;;;;20.40;3.13;;;;;;;-143.84;42.19;45087.16;5109866;28;20433;-76
2022/01/31 09:32:15;;;;;;;8.77;2.93;;;;;;;-143.84;42.22;45085.25;5094469;28;20779;-76
2022/01/31 09:34:42;;;;;;;10.83;2.93;;;;;;;-143.84;41.95;45085.25;5081603;28;20842;-76
2022/01/31 09:37:10;;;;;;;15.37;3.50;;;;;;;-143.84;41.37;45083.34;5085856;28;21014;-76
2022/01/31 09:39:38;;;;;;;7.27;2.93;;;;;;;-143.84;41.09;45100.47;5085417;28;20937;-76
2022/01/31 09:42:10;;;;;;;11.37;3.00;;;;;;;-143.84;41.03;45106.19;5087574;28;21158;-76
2022/01/31 09:44:49;;;;;;;19.97;3.40;;;;;;;-143.84;40.38;45085.25;5085798;28;20490;-77
2022/01/31 09:47:23;;;;;;;15.40;3.80;;;;;;;-143.84;39.60;45108.09;5085398;28;20819;-76
2022/01/31 09:49:51;;;;;;;7.73;3.10;;;;;;;-143.84;39.46;45098.56;5086167;28;20463;-75
2022/01/31 09:52:18;;;;;;;7.10;2.93;;;;;;;-143.84;39.26;45071.91;5085737;28;20820;-76
2022/01/31 09:54:48;;;;;;;24.87;3.33;;;;;;;-143.84;38.76;45113.81;5086480;28;20476;-76
2022/01/31 09:57:16;;;;;;;8.93;3.20;;;;;;;-143.84;39.27;45077.63;5086518;28;20443;-76
2022/01/31 09:59:43;;;;;;;19.30;3.70;;;;;;;-143.84;38.63;45075.72;5086542;28;20458;-76
2022/01/31 10:02:12;;;;;;;21.40;3.43;;;;;;;-143.84;38.61;45052.88;5086549;28;20456;-76
2022/01/31 10:04:48;;;;;;;19.90;4.80;;;;;;;-143.84;38.81;45071.91;5086438;28;20482;-76
2022/01/31 10:07:15;;;;;;;11.57;3.73;;;;;;;-143.84;39.04;45087.16;5085799;28;20529;-76
2022/01/31 10:09:47;;;;;;;11.43;3.80;;;;;;;-143.84;38.48;45071.91;5086396;28;20458;-77
2022/01/31 10:12:26;;;;;;;13.70;2.90;;;;;;;-143.84;38.69;45081.44;5086329;28;20461;-75
2022/01/31 10:17:43;;;;;;;9.37;3.20;;;;;;;-143.84;38.74;45083.34;5085732;28;20911;-76
2022/01/31 10:20:27;;;;;;;12.60;3.37;;;;;;;-143.84;38.29;45089.06;5087718;28;20454;-74
2022/01/31 10:22:55;;;;;;;24.47;4.43;;;;;;;-143.84;37.88;45087.16;5087139;28;20490;-75
2022/01/31 10:25:26;;;;;;;19.67;3.90;;;;;;;-143.84;37.98;45087.16;5086198;28;20455;-74
2022/01/31 10:28:07;;;;;;;22.77;4.63;;;;;;;-143.84;38.06;45077.63;5086147;28;21025;-75
2022/01/31 10:30:37;;;;;;;10.57;3.33;;;;;;;-143.84;38.32;45094.78;5085064;28;20948;-75
2022/01/31 10:33:13;;;;;;;16.80;3.27;;;;;;;-143.84;37.64;45075.72;5087385;28;20545;-74
2022/01/31 10:35:43;;;;;;;12.40;3.43;;;;;;;-143.84;37.34;45075.72;5085604;28;20462;-74
2022/01/31 10:38:14;;;;;;;20.30;2.73;;;;;;;-143.84;37.53;45068.13;5087264;28;20541;-74
2022/01/31 10:44:06;;;;;;;21.70;3.80;;;;;;;-143.84;37.19;45079.53;5089732;28;20494;-75
2022/01/31 10:52:20;;;;;;;31.37;2.60;;;;;;;-143.84;36.85;45085.25;5091440;28;20433;-75
2022/01/31 10:54:51;;;;;;;12.77;3.73;;;;;;;-143.84;37.47;45087.16;5090698;28;20491;-75
2022/01/31 10:57:21;;;;;;;10.63;2.40;;;;;;;-143.84;36.51;45081.44;5090850;28;20455;-75
2022/01/31 10:59:50;;;;;;;14.27;3.50;;;;;;;-143.84;37.18;45075.72;5090637;28;20517;-76
2022/01/31 11:02:19;;;;;;;14.40;3.53;;;;;;;-143.84;36.38;45094.78;5090240;28;20456;-74
2022/01/31 11:04:47;;;;;;;19.37;3.53;;;;;;;-143.84;35.76;45066.22;5089531;28;20479;-75
2022/01/31 11:07:17;;;;;;;15.67;2.80;;;;;;;-143.84;35.85;45085.25;5090258;28;21005;-75
2022/01/31 11:09:48;;;;;;;13.20;3.70;;;;;;;-143.84;36.41;45049.06;5090229;28;20956;-75
2022/01/31 11:12:15;;;;;;;22.30;3.60;;;;;;;-143.84;36.98;45073.81;5090779;28;20459;-74
2022/01/31 11:14:45;;;;;;;8.33;3.13;;;;;;;-143.84;36.38;45073.81;5090090;28;20899;-74
2022/01/31 11:17:14;;;;;;;14.00;4.40;;;;;;;-143.84;36.48;45064.31;5090637;28;20444;-75
2022/01/31 11:19:43;;;;;;;7.50;3.00;;;;;;;-143.84;36.03;45058.59;5090139;28;20460;-75
2022/01/31 11:22:11;;;;;;;9.60;3.00;;;;;;;-143.84;36.12;45083.34;5090338;28;20543;-75
2022/01/31 11:24:45;;;;;;;13.97;3.23;;;;;;;-143.84;36.56;45092.88;5089902;28;20570;-75
2022/01/31 11:27:15;;;;;;;7.20;2.40;;;;;;;-143.84;36.11;45108.09;5090382;28;20839;-74
2022/01/31 11:29:45;;;;;;;11.60;3.60;;;;;;;-143.84;36.57;45079.53;5090215;28;20465;-75
2022/01/31 11:32:13;;;;;;;5.03;2.27;;;;;;;-143.84;36.92;45075.72;5090094;28;20490;-75
2022/01/31 11:34:45;;;;;;;15.80;3.30;;;;;;;-143.84;36.93;45081.44;5089817;28;20887;-75